Time;durP1;ratioP1;P1;durP2;ratioP2;P2;SDS_P1;SDS_P2;PMS_P1;PMS_P2;Temp;Humidity;BMP_temperature;BMP_pressure;BME280_temperature;BME280_humidity;BME280_pressure;Samples;Min_cycle;Max_cycle;Signal;HPM_P1;HPM_P2
2022/10/10 00:01:06;;;;;;;7.05;3.30;;;11.80;99.90;;;;;;5054926;28;20701;-77
2022/10/10 00:03:33;;;;;;;6.25;3.60;;;11.80;99.90;;;;;;5054056;28;20263;-77
2022/10/10 00:06:02;;;;;;;3.05;2.75;;;11.80;99.90;;;;;;5054577;28;20221;-77
2022/10/10 00:08:29;;;;;;;5.75;3.40;;;11.70;99.90;;;;;;5053336;28;20267;-77
2022/10/10 00:10:58;;;;;;;6.38;3.30;;;11.80;99.90;;;;;;5053776;28;20304;-77
2022/10/10 00:13:27;;;;;;;4.18;2.70;;;11.80;99.90;;;;;;5052134;28;20735;-76
2022/10/10 00:15:58;;;;;;;3.97;2.60;;;11.70;99.90;;;;;;5052342;28;20244;-77
2022/10/10 00:18:27;;;;;;;3.65;2.55;;;11.70;99.90;;;;;;5051532;28;20312;-77
2022/10/10 00:20:54;;;;;;;7.85;2.78;;;11.70;99.90;;;;;;5043746;28;20220;-77
2022/10/10 00:23:23;;;;;;;8.65;4.38;;;11.60;99.90;;;;;;5051379;28;20228;-77
2022/10/10 00:25:51;;;;;;;7.25;3.20;;;11.60;99.90;;;;;;5048857;28;20251;-77
2022/10/10 00:28:19;;;;;;;5.43;2.35;;;11.60;99.90;;;;;;5052306;28;20228;-77
2022/10/10 00:30:47;;;;;;;3.33;2.53;;;11.60;99.90;;;;;;5052877;28;20308;-77
2022/10/10 00:33:16;;;;;;;4.28;2.78;;;11.60;99.90;;;;;;5043058;28;20266;-78
2022/10/10 00:35:43;;;;;;;5.53;2.58;;;11.60;99.90;;;;;;5052272;28;20694;-76
2022/10/10 00:38:10;;;;;;;4.85;2.97;;;11.50;99.90;;;;;;5063516;28;20573;-76
2022/10/10 00:40:51;;;;;;;7.25;4.20;;;11.50;99.90;;;;;;5051261;28;20299;-77
2022/10/10 00:43:20;;;;;;;8.07;3.13;;;11.50;99.90;;;;;;5041449;28;20285;-78
2022/10/10 00:45:51;;;;;;;4.32;2.65;;;11.40;99.90;;;;;;5052948;28;20700;-78
2022/10/10 00:48:21;;;;;;;3.28;2.88;;;11.40;99.90;;;;;;5053499;28;20244;-77
2022/10/10 00:51:01;;;;;;;7.35;3.30;;;11.40;99.90;;;;;;5052134;28;20224;-77
2022/10/10 00:53:32;;;;;;;5.15;3.38;;;11.40;99.90;;;;;;5050363;28;20229;-76
2022/10/10 00:56:03;;;;;;;4.05;2.85;;;11.30;99.90;;;;;;5052144;28;20226;-76
2022/10/10 00:58:32;;;;;;;5.05;3.53;;;11.30;99.90;;;;;;5053081;28;20220;-77
2022/10/10 01:01:04;;;;;;;5.97;3.20;;;11.30;99.90;;;;;;5052461;28;20303;-76
2022/10/10 01:03:31;;;;;;;6.55;3.15;;;11.40;99.90;;;;;;5041049;28;20224;-77
2022/10/10 01:05:58;;;;;;;6.97;3.20;;;11.30;99.90;;;;;;5052554;28;20693;-77
2022/10/10 01:08:26;;;;;;;5.68;3.00;;;11.30;99.90;;;;;;5052870;28;20245;-77
2022/10/10 01:11:06;;;;;;;5.53;2.60;;;11.30;99.90;;;;;;5053043;28;20311;-76
2022/10/10 01:13:46;;;;;;;7.70;2.97;;;11.20;99.90;;;;;;5031072;28;20225;-76
2022/10/10 01:16:20;;;;;;;3.75;2.30;;;11.20;99.90;;;;;;5041432;28;21065;-77
2022/10/10 01:18:57;;;;;;;4.85;3.25;;;11.20;99.90;;;;;;5053068;28;20247;-76
2022/10/10 01:21:34;;;;;;;4.78;2.72;;;11.20;99.90;;;;;;5052927;28;20301;-76
2022/10/10 01:24:42;;;;;;;4.40;2.95;;;11.20;99.90;;;;;;5052686;28;20225;-77
2022/10/10 01:27:18;;;;;;;6.55;2.92;;;11.20;99.90;;;;;;5052442;28;20220;-77
2022/10/10 01:29:53;;;;;;;5.00;3.00;;;11.20;99.90;;;;;;5040962;28;20220;-77
2022/10/10 01:32:28;;;;;;;5.35;2.60;;;11.20;99.90;;;;;;5052110;28;20836;-76
2022/10/10 01:35:11;;;;;;;6.45;3.50;;;11.20;99.90;;;;;;5052846;28;20251;-76
2022/10/10 01:38:00;;;;;;;5.05;2.72;;;11.20;99.90;;;;;;5053230;28;20231;-77
2022/10/10 01:40:33;;;;;;;4.60;3.20;;;11.10;99.90;;;;;;5052903;28;20666;-76
2022/10/10 01:43:05;;;;;;;7.57;3.45;;;11.10;99.90;;;;;;5052771;28;20232;-76
2022/10/10 01:45:37;;;;;;;6.30;3.65;;;11.00;99.90;;;;;;5052094;28;20758;-76
2022/10/10 01:48:07;;;;;;;4.60;2.88;;;11.10;99.90;;;;;;5053169;28;20633;-77
2022/10/10 01:50:43;;;;;;;3.63;2.45;;;11.00;99.90;;;;;;5052054;28;20251;-77
2022/10/10 01:53:14;;;;;;;4.78;2.58;;;10.90;99.90;;;;;;5052980;28;20307;-77
2022/10/10 01:55:49;;;;;;;3.55;3.25;;;11.00;99.90;;;;;;5037832;28;20294;-77
2022/10/10 01:58:41;;;;;;;4.93;2.08;;;11.00;99.90;;;;;;5040805;28;20235;-77
2022/10/10 02:01:16;;;;;;;4.88;2.55;;;11.00;99.90;;;;;;5052854;28;20311;-77
2022/10/10 02:03:47;;;;;;;5.07;2.95;;;11.00;99.90;;;;;;5034264;28;20252;-76
2022/10/10 02:06:21;;;;;;;6.40;3.15;;;11.00;99.90;;;;;;5037511;28;20688;-76
2022/10/10 02:08:56;;;;;;;4.07;2.75;;;11.00;99.90;;;;;;5052555;28;20240;-76
2022/10/10 02:11:26;;;;;;;6.70;3.00;;;11.00;99.90;;;;;;5052405;28;20706;-77
2022/10/10 02:14:02;;;;;;;4.65;2.60;;;10.90;99.90;;;;;;5052856;28;20232;-76
2022/10/10 02:16:37;;;;;;;4.40;2.97;;;11.00;99.90;;;;;;5045456;28;20732;-76
2022/10/10 02:19:09;;;;;;;4.18;2.63;;;11.00;99.90;;;;;;5056379;28;20238;-76
2022/10/10 02:21:38;;;;;;;2.50;2.30;;;11.00;99.90;;;;;;5042933;28;20587;-76
2022/10/10 02:24:09;;;;;;;4.80;2.90;;;11.00;99.90;;;;;;5056028;28;20311;-76
2022/10/10 02:26:38;;;;;;;6.88;3.10;;;11.00;99.90;;;;;;5055764;28;20246;-76
2022/10/10 02:29:09;;;;;;;4.55;2.83;;;11.00;99.90;;;;;;5055549;28;20282;-76
2022/10/10 02:31:43;;;;;;;4.35;2.97;;;11.00;99.90;;;;;;5054905;28;20235;-76
2022/10/10 02:34:19;;;;;;;4.03;3.28;;;11.00;99.90;;;;;;5055482;28;20654;-76
2022/10/10 02:36:50;;;;;;;6.47;2.90;;;11.00;99.90;;;;;;5055555;28;20230;-76
2022/10/10 02:39:29;;;;;;;3.72;2.95;;;11.10;99.90;;;;;;5056179;28;20664;-80
2022/10/10 02:41:56;;;;;;;3.53;2.78;;;11.00;99.90;;;;;;5054312;28;20224;-76
2022/10/10 02:44:27;;;;;;;6.65;3.65;;;11.00;99.90;;;;;;5055315;28;20290;-76
2022/10/10 02:47:00;;;;;;;9.25;3.05;;;11.00;99.90;;;;;;5055541;28;20220;-76
2022/10/10 02:49:31;;;;;;;5.03;3.20;;;11.10;99.90;;;;;;5056150;28;20233;-76
2022/10/10 02:51:58;;;;;;;7.40;3.15;;;11.10;99.90;;;;;;5056397;28;20311;-77
2022/10/10 02:54:27;;;;;;;4.88;3.03;;;11.20;99.90;;;;;;5056099;28;20308;-76
2022/10/10 02:56:54;;;;;;;5.43;3.13;;;11.20;99.90;;;;;;5053928;28;20224;-76
2022/10/10 02:59:21;;;;;;;5.10;2.90;;;11.30;99.90;;;;;;5060575;28;20281;-76
2022/10/10 03:01:48;;;;;;;7.50;2.80;;;11.40;99.90;;;;;;5055312;28;20228;-77
2022/10/10 03:04:16;;;;;;;8.07;2.92;;;11.40;99.90;;;;;;5055632;28;20221;-76
2022/10/10 03:06:46;;;;;;;6.43;2.92;;;11.40;99.90;;;;;;5055635;28;20245;-76
2022/10/10 03:09:13;;;;;;;3.40;2.50;;;11.30;99.90;;;;;;5055386;28;20224;-75
2022/10/10 03:11:40;;;;;;;3.58;3.17;;;11.30;99.90;;;;;;5055857;28;20312;-76
2022/10/10 03:14:07;;;;;;;6.50;3.75;;;11.30;99.90;;;;;;5055248;28;20255;-76
2022/10/10 03:16:35;;;;;;;4.43;2.58;;;11.30;99.90;;;;;;5047463;28;20303;-76
2022/10/10 03:19:03;;;;;;;5.75;2.95;;;11.30;99.90;;;;;;5055496;28;20224;-76
2022/10/10 03:21:31;;;;;;;5.53;3.30;;;11.30;99.90;;;;;;5055704;28;20243;-77
2022/10/10 03:23:58;;;;;;;6.95;3.38;;;11.20;99.90;;;;;;5055078;28;20242;-76
2022/10/10 03:26:33;;;;;;;4.57;3.53;;;11.30;99.90;;;;;;5055035;28;20634;-77
2022/10/10 03:29:01;;;;;;;4.22;2.80;;;11.20;99.90;;;;;;5054995;28;20281;-76
2022/10/10 03:31:28;;;;;;;7.95;3.08;;;11.20;99.90;;;;;;5046083;28;20243;-76
2022/10/10 03:33:55;;;;;;;8.20;3.50;;;11.20;99.90;;;;;;5054778;28;20221;-77
2022/10/10 03:36:23;;;;;;;3.60;2.83;;;11.20;99.90;;;;;;5055435;28;20255;-76
2022/10/10 03:38:51;;;;;;;6.05;3.25;;;11.20;99.90;;;;;;5055024;28;20220;-77
2022/10/10 03:41:18;;;;;;;3.90;3.45;;;11.20;99.90;;;;;;5054635;28;20728;-77
2022/10/10 03:43:45;;;;;;;4.78;2.90;;;11.20;99.90;;;;;;5054567;28;20247;-77
2022/10/10 03:46:17;;;;;;;6.78;3.08;;;11.10;99.90;;;;;;5054373;28;20340;-77
2022/10/10 03:48:44;;;;;;;6.20;3.20;;;11.10;99.90;;;;;;5055058;28;20225;-77
2022/10/10 03:51:11;;;;;;;4.00;3.10;;;11.10;99.90;;;;;;5054818;28;20286;-77
2022/10/10 03:53:42;;;;;;;6.22;3.60;;;11.10;99.90;;;;;;5044449;28;20244;-77
2022/10/10 03:56:10;;;;;;;10.25;3.42;;;11.10;99.90;;;;;;5054101;28;20268;-77
2022/10/10 03:58:38;;;;;;;3.88;3.58;;;11.10;99.90;;;;;;5055104;28;20243;-77
2022/10/10 04:01:06;;;;;;;5.65;3.90;;;11.00;99.90;;;;;;5054487;28;20231;-77
2022/10/10 04:03:33;;;;;;;4.60;3.20;;;11.00;99.90;;;;;;5054846;28;20248;-77
2022/10/10 04:06:00;;;;;;;5.30;3.05;;;11.00;99.90;;;;;;5055198;28;20224;-77
2022/10/10 04:08:28;;;;;;;6.40;3.45;;;11.00;99.90;;;;;;5042650;28;20228;-76
2022/10/10 04:10:55;;;;;;;4.82;3.38;;;10.90;99.90;;;;;;5034589;28;20229;-76
2022/10/10 04:13:24;;;;;;;4.30;3.25;;;10.90;99.90;;;;;;5034664;28;20600;-76
2022/10/10 04:16:06;;;;;;;5.13;3.28;;;10.90;99.90;;;;;;5034739;28;20222;-76
2022/10/10 04:18:42;;;;;;;5.63;2.95;;;10.80;99.90;;;;;;5044238;28;20224;-77
2022/10/10 04:21:11;;;;;;;5.82;3.28;;;10.80;99.90;;;;;;5042500;28;20220;-76
2022/10/10 04:23:52;;;;;;;8.38;4.03;;;10.80;99.90;;;;;;5053962;28;20229;-77
2022/10/10 04:26:19;;;;;;;5.72;3.05;;;10.80;99.90;;;;;;5054578;28;20228;-76
2022/10/10 04:28:47;;;;;;;5.10;3.10;;;10.80;99.90;;;;;;5054182;28;20312;-77
2022/10/10 04:31:14;;;;;;;6.57;3.50;;;10.80;99.90;;;;;;5053870;28;20259;-77
2022/10/10 04:33:44;;;;;;;4.85;3.88;;;10.80;99.90;;;;;;5052750;28;20228;-77
2022/10/10 04:36:11;;;;;;;4.68;2.72;;;10.70;99.90;;;;;;5054344;28;20232;-76
2022/10/10 04:38:38;;;;;;;5.32;4.13;;;10.70;99.90;;;;;;5053087;28;20240;-77
2022/10/10 04:41:05;;;;;;;4.07;3.03;;;10.70;99.90;;;;;;5054624;28;20230;-76
2022/10/10 04:43:57;;;;;;;5.90;3.53;;;10.80;99.90;;;;;;5042449;28;20248;-76
2022/10/10 04:46:25;;;;;;;6.18;3.25;;;10.80;99.90;;;;;;5049236;28;20252;-77
2022/10/10 04:48:51;;;;;;;4.50;3.40;;;10.80;99.90;;;;;;5043465;28;20240;-77
2022/10/10 04:51:19;;;;;;;5.13;3.17;;;10.80;99.90;;;;;;5053535;28;20229;-77
2022/10/10 04:53:48;;;;;;;5.63;3.40;;;10.80;99.90;;;;;;5054399;28;20701;-77
2022/10/10 04:56:16;;;;;;;5.95;3.97;;;10.80;99.90;;;;;;5041712;28;20229;-77
2022/10/10 04:58:43;;;;;;;5.80;3.00;;;10.80;99.90;;;;;;5053254;28;20248;-77
2022/10/10 05:01:11;;;;;;;7.25;3.45;;;10.80;99.90;;;;;;5043789;28;20566;-77
2022/10/10 05:03:38;;;;;;;11.18;3.75;;;10.80;99.90;;;;;;5053004;28;20270;-77
2022/10/10 05:06:05;;;;;;;7.13;3.58;;;10.80;99.90;;;;;;5054122;28;20236;-76
2022/10/10 05:08:32;;;;;;;4.40;3.30;;;10.70;99.90;;;;;;5052628;28;20303;-76
2022/10/10 05:11:03;;;;;;;6.22;4.10;;;10.70;99.90;;;;;;5054030;28;20228;-76
2022/10/10 05:13:30;;;;;;;3.67;2.92;;;10.60;99.90;;;;;;5053743;28;20315;-76
2022/10/10 05:19:04;;;;;;;6.60;3.67;;;10.60;99.90;;;;;;5037910;28;20216;-76
2022/10/10 05:21:31;;;;;;;4.68;3.00;;;10.50;99.90;;;;;;5053516;28;20299;-77
2022/10/10 05:23:58;;;;;;;7.90;3.85;;;10.50;99.90;;;;;;5053161;28;20303;-77
2022/10/10 05:26:25;;;;;;;5.05;3.67;;;10.50;99.90;;;;;;5053269;28;20217;-76
2022/10/10 05:28:53;;;;;;;5.85;3.35;;;10.50;99.90;;;;;;5043370;28;20228;-76
2022/10/10 05:31:50;;;;;;;4.82;3.97;;;10.40;99.90;;;;;;5041564;28;20694;-76
2022/10/10 05:34:41;;;;;;;6.13;4.13;;;10.40;99.90;;;;;;5026263;28;20236;-77
2022/10/10 05:37:08;;;;;;;5.18;4.25;;;10.30;99.90;;;;;;5032753;28;20319;-76
2022/10/10 05:39:35;;;;;;;9.77;4.85;;;10.20;99.90;;;;;;5053745;28;20247;-75
2022/10/10 05:42:02;;;;;;;5.22;4.70;;;10.10;99.90;;;;;;5052812;28;20224;-76
2022/10/10 05:44:32;;;;;;;4.22;3.42;;;10.20;99.90;;;;;;5052972;28;20307;-76
2022/10/10 05:47:07;;;;;;;7.55;3.65;;;10.20;99.90;;;;;;5025036;28;20565;-76
2022/10/10 05:49:34;;;;;;;5.00;3.63;;;10.20;99.90;;;;;;5025873;28;20663;-76
2022/10/10 05:52:01;;;;;;;8.50;4.15;;;10.30;99.90;;;;;;5036595;28;20336;-76
2022/10/10 05:54:28;;;;;;;9.13;4.47;;;10.30;99.90;;;;;;5027415;28;20702;-76
2022/10/10 05:56:55;;;;;;;5.95;4.10;;;10.30;99.90;;;;;;5037215;28;20294;-76
2022/10/10 05:59:22;;;;;;;7.88;4.40;;;10.30;99.90;;;;;;5037568;28;20263;-76
2022/10/10 06:01:54;;;;;;;4.90;3.80;;;10.30;99.90;;;;;;5036989;28;20229;-76
2022/10/10 06:04:23;;;;;;;6.80;3.40;;;10.40;99.90;;;;;;5026890;28;20236;-76
2022/10/10 06:06:51;;;;;;;6.93;4.30;;;10.40;99.90;;;;;;5026913;28;20705;-76
2022/10/10 06:09:21;;;;;;;6.90;3.38;;;10.50;99.90;;;;;;5025332;28;20229;-76
2022/10/10 06:11:48;;;;;;;3.90;2.85;;;10.60;99.90;;;;;;5027709;28;20228;-76
2022/10/10 06:14:15;;;;;;;4.55;3.10;;;10.60;99.90;;;;;;5036358;28;20244;-76
2022/10/10 06:16:44;;;;;;;4.53;3.47;;;10.60;99.90;;;;;;5037511;28;20295;-76
2022/10/10 06:19:11;;;;;;;4.63;4.05;;;10.60;99.90;;;;;;5036544;28;20609;-76
2022/10/10 06:21:39;;;;;;;4.10;3.70;;;10.70;99.90;;;;;;5037227;28;20248;-76
2022/10/10 06:24:10;;;;;;;6.20;4.40;;;10.70;99.90;;;;;;5035839;28;20604;-77
2022/10/10 06:26:37;;;;;;;6.03;3.63;;;10.80;99.90;;;;;;5036798;28;20247;-76
2022/10/10 06:29:04;;;;;;;5.35;2.85;;;10.80;99.90;;;;;;5036359;28;20221;-76
2022/10/10 06:31:31;;;;;;;5.40;3.95;;;10.90;99.90;;;;;;5036838;28;20233;-76
2022/10/10 06:34:00;;;;;;;3.75;3.33;;;11.00;99.90;;;;;;5036655;28;20261;-76
2022/10/10 06:36:34;;;;;;;6.40;4.70;;;11.00;99.90;;;;;;5035956;28;20221;-77
2022/10/10 06:39:06;;;;;;;8.30;5.18;;;11.00;99.90;;;;;;5036581;28;20595;-76
2022/10/10 06:41:40;;;;;;;6.85;5.25;;;11.10;99.90;;;;;;5035767;28;20702;-76
2022/10/10 06:44:07;;;;;;;9.80;4.55;;;11.10;99.90;;;;;;5036431;28;20227;-77
2022/10/10 06:46:36;;;;;;;8.02;4.03;;;11.10;99.90;;;;;;5041388;28;20231;-77
2022/10/10 06:49:03;;;;;;;9.70;4.60;;;11.10;99.90;;;;;;5056106;28;20220;-77
2022/10/10 06:51:33;;;;;;;4.43;3.95;;;11.10;99.90;;;;;;5044579;28;20710;-77
2022/10/10 06:54:02;;;;;;;9.77;5.13;;;11.10;99.90;;;;;;5044235;28;20290;-77
2022/10/10 06:56:31;;;;;;;5.20;3.40;;;11.10;99.90;;;;;;5054363;28;20307;-77
2022/10/10 06:59:07;;;;;;;8.95;3.67;;;11.10;99.90;;;;;;5020784;28;20254;-77
2022/10/10 07:01:34;;;;;;;4.70;4.20;;;11.10;99.90;;;;;;5036370;28;20688;-77
2022/10/10 07:04:01;;;;;;;5.03;3.50;;;11.20;99.90;;;;;;5045523;28;20667;-77
2022/10/10 07:06:28;;;;;;;6.18;4.03;;;11.20;99.90;;;;;;5054854;28;20540;-77
2022/10/10 07:08:56;;;;;;;9.80;3.72;;;11.20;99.90;;;;;;5055951;28;20224;-77
2022/10/10 07:11:24;;;;;;;8.75;4.95;;;11.30;99.90;;;;;;5055052;28;20237;-77
2022/10/10 07:14:13;;;;;;;9.10;4.15;;;11.30;99.90;;;;;;5045816;28;20300;-77
2022/10/10 07:16:42;;;;;;;8.23;4.40;;;11.40;99.90;;;;;;5022049;28;20558;-77
2022/10/10 07:19:12;;;;;;;5.95;4.00;;;11.40;99.90;;;;;;5034283;28;20225;-77
2022/10/10 07:21:39;;;;;;;6.68;5.45;;;11.40;99.90;;;;;;5045228;28;20537;-76
2022/10/10 07:24:06;;;;;;;9.60;5.93;;;11.40;99.90;;;;;;5055580;28;20221;-77
2022/10/10 07:26:37;;;;;;;7.32;5.10;;;11.40;99.90;;;;;;5054245;28;20239;-77
2022/10/10 07:29:08;;;;;;;8.35;4.55;;;11.40;99.90;;;;;;5055484;28;20224;-76
2022/10/10 07:31:40;;;;;;;4.78;3.80;;;11.40;99.90;;;;;;5044656;28;20658;-76
2022/10/10 07:34:11;;;;;;;5.00;3.70;;;11.50;99.90;;;;;;5055414;28;20235;-77
2022/10/10 07:36:47;;;;;;;6.30;3.75;;;11.60;99.90;;;;;;5045015;28;20232;-76
2022/10/10 07:39:33;;;;;;;5.53;4.45;;;11.60;99.90;;;;;;5054973;28;20239;-77
2022/10/10 07:42:00;;;;;;;9.23;4.50;;;11.70;99.90;;;;;;5054866;28;20303;-76
2022/10/10 07:44:32;;;;;;;4.95;4.50;;;11.70;99.90;;;;;;5055634;28;20616;-77
2022/10/10 07:47:00;;;;;;;6.78;5.15;;;11.80;99.90;;;;;;5034165;28;20304;-76
2022/10/10 07:49:30;;;;;;;6.35;4.22;;;11.80;99.90;;;;;;5035433;28;20225;-76
2022/10/10 07:52:09;;;;;;;7.10;4.25;;;11.80;99.90;;;;;;5035117;28;20236;-77
2022/10/10 07:54:36;;;;;;;8.00;4.78;;;11.90;99.90;;;;;;5036149;28;20221;-77
2022/10/10 07:57:03;;;;;;;7.25;4.97;;;11.90;99.90;;;;;;5025139;28;20252;-76
2022/10/10 07:59:33;;;;;;;7.20;4.00;;;12.00;99.90;;;;;;5035206;28;20236;-76
2022/10/10 08:02:03;;;;;;;4.53;3.60;;;12.10;99.90;;;;;;5034792;28;20229;-77
2022/10/10 08:04:34;;;;;;;5.35;3.67;;;12.20;99.90;;;;;;5035134;28;21049;-77
2022/10/10 08:07:01;;;;;;;7.15;4.43;;;12.20;99.90;;;;;;5034508;28;20229;-78
2022/10/10 08:09:51;;;;;;;7.30;4.43;;;12.30;99.90;;;;;;5035349;28;20423;-77
2022/10/10 08:12:40;;;;;;;3.85;3.20;;;12.30;99.90;;;;;;5034241;28;20257;-76
2022/10/10 08:15:08;;;;;;;5.32;4.50;;;12.40;99.90;;;;;;5034572;28;20574;-77
2022/10/10 08:17:36;;;;;;;4.13;3.72;;;12.50;99.90;;;;;;5034767;28;20225;-76
2022/10/10 08:20:03;;;;;;;7.05;4.18;;;12.50;99.90;;;;;;5034832;28;20602;-77
2022/10/10 08:22:34;;;;;;;7.43;3.95;;;12.60;99.90;;;;;;5014761;28;20292;-76
2022/10/10 08:25:01;;;;;;;6.22;4.15;;;12.60;99.90;;;;;;5005239;28;20321;-76
2022/10/10 08:27:28;;;;;;;6.05;4.00;;;12.70;99.90;;;;;;5003662;28;20230;-77
2022/10/10 08:29:58;;;;;;;9.50;4.32;;;12.70;99.90;;;;;;5015144;28;20231;-76
2022/10/10 08:32:24;;;;;;;3.92;3.50;;;12.70;99.90;;;;;;5007430;28;20233;-76
2022/10/10 08:34:53;;;;;;;5.45;3.72;;;12.80;99.90;;;;;;5002516;28;20313;-77
2022/10/10 08:37:23;;;;;;;5.68;3.40;;;12.90;99.90;;;;;;4996750;28;20615;-76
2022/10/10 08:39:52;;;;;;;7.03;4.28;;;12.90;99.90;;;;;;5014925;28;20661;-77
2022/10/10 08:42:28;;;;;;;5.72;4.38;;;13.00;99.90;;;;;;5002871;28;20735;-77
2022/10/10 08:45:01;;;;;;;4.70;4.03;;;13.00;99.90;;;;;;5034919;28;20244;-77
2022/10/10 08:47:58;;;;;;;6.82;3.60;;;13.10;99.90;;;;;;5034064;28;20222;-77
2022/10/10 08:50:30;;;;;;;5.13;3.90;;;13.10;99.90;;;;;;5031610;28;20621;-77
2022/10/10 08:53:03;;;;;;;4.20;3.80;;;13.20;99.90;;;;;;5012770;28;20264;-77
2022/10/10 08:55:32;;;;;;;4.35;3.75;;;13.30;99.90;;;;;;5026028;28;20283;-77
2022/10/10 08:58:08;;;;;;;6.38;3.67;;;13.30;99.90;;;;;;5033559;28;20237;-77
2022/10/10 09:01:02;;;;;;;4.70;3.17;;;13.40;99.90;;;;;;5010655;28;20567;-77
2022/10/10 09:03:41;;;;;;;3.70;3.40;;;13.40;99.90;;;;;;5023940;28;20320;-78
2022/10/10 09:06:26;;;;;;;3.90;3.13;;;13.40;99.90;;;;;;5021416;28;20300;-77
2022/10/10 09:09:06;;;;;;;5.72;3.30;;;13.50;99.90;;;;;;5010517;28;20284;-76
2022/10/10 09:11:46;;;;;;;4.95;3.05;;;13.60;99.90;;;;;;5011253;28;20272;-77
2022/10/10 09:14:22;;;;;;;4.63;3.30;;;13.60;99.90;;;;;;5034642;28;20239;-78
2022/10/10 09:17:00;;;;;;;4.72;4.20;;;13.70;99.90;;;;;;5014656;28;20248;-77
2022/10/10 09:19:43;;;;;;;3.78;3.40;;;13.80;99.90;;;;;;5020602;28;20213;-77
2022/10/10 09:22:16;;;;;;;4.93;3.35;;;13.80;99.90;;;;;;5022557;28;20323;-77
2022/10/10 09:24:49;;;;;;;4.38;3.15;;;13.90;99.90;;;;;;5032585;28;20244;-77
2022/10/10 09:27:20;;;;;;;4.93;3.15;;;13.90;99.90;;;;;;5008491;28;20218;-77
2022/10/10 09:29:52;;;;;;;3.13;2.70;;;14.00;99.90;;;;;;5014350;28;20842;-77
2022/10/10 09:32:27;;;;;;;3.93;3.50;;;14.10;99.90;;;;;;5022194;28;20980;-77
2022/10/10 09:35:04;;;;;;;4.50;3.47;;;14.20;99.90;;;;;;5018489;28;20494;-77
2022/10/10 09:37:40;;;;;;;7.67;3.40;;;14.30;99.90;;;;;;5027576;28;20459;-77
2022/10/10 09:40:18;;;;;;;6.33;3.37;;;14.40;99.90;;;;;;5020123;28;20451;-77
2022/10/10 09:42:46;;;;;;;8.03;3.20;;;14.60;99.90;;;;;;5032152;28;20795;-77
2022/10/10 09:45:18;;;;;;;2.77;2.53;;;14.60;99.90;;;;;;5025703;28;20454;-77
2022/10/10 09:47:47;;;;;;;7.23;3.40;;;14.70;99.90;;;;;;5054236;28;20474;-78
2022/10/10 09:50:16;;;;;;;2.80;2.60;;;14.80;99.90;;;;;;5049956;28;20561;-77
2022/10/10 09:53:02;;;;;;;8.40;3.10;;;15.00;99.90;;;;;;5038401;28;20479;-77
2022/10/10 09:55:34;;;;;;;4.27;3.10;;;15.10;99.90;;;;;;5031119;28;20506;-76
2022/10/10 09:58:15;;;;;;;3.77;3.40;;;15.20;99.90;;;;;;5065038;28;20479;-76
2022/10/10 10:00:42;;;;;;;5.27;4.13;;;15.30;99.90;;;;;;5047483;28;20509;-76
2022/10/10 10:03:14;;;;;;;6.40;3.03;;;15.40;99.90;;;;;;5051981;28;20467;-76
2022/10/10 10:05:47;;;;;;;6.00;3.47;;;15.50;99.90;;;;;;5052384;28;20511;-76
2022/10/10 10:08:25;;;;;;;4.23;2.53;;;15.60;99.90;;;;;;5053568;28;20467;-74
2022/10/10 10:11:06;;;;;;;4.33;3.17;;;15.70;99.90;;;;;;5035577;28;20488;-76
2022/10/10 10:13:50;;;;;;;3.50;3.10;;;15.70;99.90;;;;;;5043549;28;20468;-76
2022/10/10 10:16:17;;;;;;;5.13;4.63;;;15.80;99.90;;;;;;5055622;28;20475;-77
2022/10/10 10:18:46;;;;;;;6.07;3.30;;;15.80;99.90;;;;;;5055502;28;20478;-76
2022/10/10 10:21:25;;;;;;;3.87;2.97;;;15.80;99.90;;;;;;5057075;28;20516;-77
2022/10/10 10:23:56;;;;;;;4.43;3.17;;;15.90;99.90;;;;;;5056089;28;20471;-77
2022/10/10 10:26:26;;;;;;;3.97;3.30;;;15.90;99.90;;;;;;5056493;28;20458;-78
2022/10/10 10:28:56;;;;;;;7.33;3.30;;;15.90;99.90;;;;;;5061394;28;20507;-78
2022/10/10 10:31:56;;;;;;;3.93;3.10;;;15.90;99.90;;;;;;5060200;28;20456;-77
2022/10/10 10:34:59;;;;;;;4.87;3.40;;;15.90;99.90;;;;;;5049884;28;20789;-76
2022/10/10 10:37:35;;;;;;;7.50;3.83;;;16.00;99.90;;;;;;5022413;28;20475;-76
2022/10/10 10:43:42;;;;;;;4.70;3.90;;;16.10;99.90;;;;;;5032962;28;20488;-76
2022/10/10 10:46:26;;;;;;;5.00;3.03;;;16.20;99.90;;;;;;5053020;28;20495;-76
2022/10/10 10:49:01;;;;;;;5.13;3.20;;;16.20;99.90;;;;;;5051769;28;20475;-75
2022/10/10 10:51:56;;;;;;;4.10;3.30;;;16.30;99.90;;;;;;5061287;28;20459;-77
2022/10/10 10:54:48;;;;;;;4.90;2.90;;;16.30;99.90;;;;;;5062837;28;20506;-77
2022/10/10 10:57:33;;;;;;;4.20;3.07;;;16.40;99.90;;;;;;5056081;28;20829;-77
2022/10/10 11:00:06;;;;;;;4.07;3.17;;;16.40;99.90;;;;;;5060153;28;20538;-76
2022/10/10 11:02:40;;;;;;;4.73;3.40;;;16.40;99.30;;;;;;5055769;28;20813;-76
2022/10/10 11:05:36;;;;;;;5.33;3.07;;;16.40;99.40;;;;;;5047516;28;20518;-75
2022/10/10 11:08:29;;;;;;;8.37;3.57;;;16.30;99.30;;;;;;5053213;28;20537;-75
2022/10/10 11:11:16;;;;;;;5.20;3.57;;;16.30;99.40;;;;;;5055558;28;20597;-76
2022/10/10 11:13:55;;;;;;;4.20;3.80;;;16.40;99.40;;;;;;5056254;28;20536;-76
2022/10/10 11:16:32;;;;;;;5.13;4.13;;;16.50;99.50;;;;;;5056095;28;20567;-76
2022/10/10 11:19:12;;;;;;;6.30;5.23;;;16.50;99.60;;;;;;5051468;28;20525;-78
2022/10/10 11:21:48;;;;;;;3.67;3.23;;;16.60;99.60;;;;;;5054967;28;20472;-77
2022/10/10 11:24:22;;;;;;;2.90;2.70;;;16.60;99.40;;;;;;5055068;28;20951;-77
2022/10/10 11:26:56;;;;;;;5.43;3.07;;;16.60;99.40;;;;;;5058495;28;20474;-77
2022/10/10 11:29:29;;;;;;;4.27;3.87;;;16.70;99.50;;;;;;5057477;28;20469;-75
2022/10/10 11:32:10;;;;;;;7.87;3.93;;;16.70;99.50;;;;;;5067408;28;20525;-76
2022/10/10 11:34:42;;;;;;;6.30;2.93;;;16.70;99.50;;;;;;5042816;28;20457;-77
2022/10/10 11:37:15;;;;;;;4.37;3.00;;;16.70;99.50;;;;;;5038853;28;20827;-77
2022/10/10 11:39:50;;;;;;;5.40;3.37;;;16.70;99.60;;;;;;5055395;28;20461;-77
2022/10/10 11:43:00;;;;;;;4.23;3.17;;;16.70;99.60;;;;;;5060830;28;20472;-76
2022/10/10 11:45:37;;;;;;;2.70;2.50;;;16.80;99.60;;;;;;5054634;28;20507;-77
2022/10/10 11:48:23;;;;;;;3.07;2.77;;;16.80;99.90;;;;;;5059534;28;20471;-76
2022/10/10 11:50:59;;;;;;;3.90;2.50;;;16.80;99.90;;;;;;5065508;28;20466;-76
2022/10/10 11:53:40;;;;;;;6.63;3.00;;;16.90;99.90;;;;;;5053109;28;20477;-76
2022/10/10 11:56:19;;;;;;;3.50;2.80;;;16.90;99.90;;;;;;5033126;28;20820;-77
2022/10/10 11:58:53;;;;;;;2.87;2.57;;;17.00;99.90;;;;;;5045701;28;20528;-77
2022/10/10 12:01:28;;;;;;;6.13;5.53;;;17.00;99.90;;;;;;5039184;28;20529;-76
2022/10/10 12:03:58;;;;;;;6.17;5.03;;;17.00;99.90;;;;;;5042053;28;20515;-76
2022/10/10 12:06:30;;;;;;;4.47;2.60;;;17.10;99.90;;;;;;5060319;28;20507;-75
2022/10/10 12:09:03;;;;;;;3.00;2.70;;;17.10;99.90;;;;;;5041966;28;20488;-75
2022/10/10 12:11:36;;;;;;;4.07;3.60;;;17.20;99.90;;;;;;5057978;28;20955;-75
2022/10/10 12:14:08;;;;;;;5.33;4.57;;;17.20;99.90;;;;;;5038813;28;20555;-76
2022/10/10 12:16:58;;;;;;;5.07;3.37;;;17.30;99.90;;;;;;5045169;28;20955;-76
2022/10/10 12:19:28;;;;;;;3.53;2.60;;;17.30;99.90;;;;;;5049840;28;20536;-78
2022/10/10 12:22:10;;;;;;;4.43;2.93;;;17.40;99.90;;;;;;5058922;28;20469;-77
2022/10/10 12:25:21;;;;;;;2.30;2.20;;;17.40;99.90;;;;;;5046535;28;20485;-77
2022/10/10 12:28:04;;;;;;;6.03;3.20;;;17.40;99.90;;;;;;5027961;28;20466;-76
2022/10/10 12:30:32;;;;;;;3.00;2.70;;;17.50;99.90;;;;;;5045610;28;20494;-76
2022/10/10 12:33:02;;;;;;;4.60;2.30;;;17.50;99.90;;;;;;5058325;28;20469;-76
2022/10/10 12:35:41;;;;;;;3.80;2.67;;;17.50;99.90;;;;;;5048723;28;20958;-77
2022/10/10 12:38:27;;;;;;;6.20;3.13;;;17.60;99.90;;;;;;5060935;28;20747;-77
2022/10/10 12:41:07;;;;;;;3.20;2.47;;;17.60;99.90;;;;;;5042547;28;20494;-77
2022/10/10 12:43:47;;;;;;;3.13;2.70;;;17.70;99.90;;;;;;5058113;28;20749;-77
2022/10/10 12:46:28;;;;;;;3.03;2.70;;;17.60;99.80;;;;;;5030736;28;20497;-77
2022/10/10 12:49:18;;;;;;;3.93;3.53;;;17.60;99.70;;;;;;5046150;28;20481;-78
2022/10/10 12:51:57;;;;;;;3.83;3.37;;;17.70;99.80;;;;;;5048154;28;20462;-79
2022/10/10 12:54:28;;;;;;;3.73;3.10;;;17.70;99.80;;;;;;5061523;28;20568;-77
2022/10/10 12:57:07;;;;;;;4.20;3.20;;;17.70;99.90;;;;;;5056341;28;20482;-76
2022/10/10 12:59:38;;;;;;;5.20;3.23;;;17.70;99.90;;;;;;5060582;28;20992;-77
2022/10/10 13:02:15;;;;;;;4.27;3.00;;;17.70;99.90;;;;;;5062084;28;20471;-76
2022/10/10 13:04:51;;;;;;;3.07;2.70;;;17.70;99.90;;;;;;5057375;28;20482;-76
2022/10/10 13:07:21;;;;;;;5.80;3.10;;;17.80;99.90;;;;;;5059051;28;20467;-76
2022/10/10 13:09:52;;;;;;;3.23;2.80;;;17.80;99.90;;;;;;5047238;28;20478;-76
2022/10/10 13:12:27;;;;;;;3.63;2.70;;;17.80;99.90;;;;;;5058769;28;20615;-76
2022/10/10 13:14:56;;;;;;;3.40;2.50;;;17.90;99.90;;;;;;5047896;28;20470;-77
2022/10/10 13:17:27;;;;;;;2.70;2.50;;;17.90;99.90;;;;;;5049344;28;20550;-77
2022/10/10 13:19:57;;;;;;;4.17;3.87;;;17.90;99.90;;;;;;5055628;28;20470;-77
2022/10/10 13:22:32;;;;;;;4.43;3.20;;;17.90;99.90;;;;;;5045591;28;20471;-77
2022/10/10 13:25:04;;;;;;;3.60;2.93;;;17.90;99.90;;;;;;5053577;28;20468;-76